Time;durP1;ratioP1;P1;durP2;ratioP2;P2;SDS_P1;SDS_P2;PMS_P1;PMS_P2;Temp;Humidity;BMP_temperature;BMP_pressure;BME280_temperature;BME280_humidity;BME280_pressure;Samples;Min_cycle;Max_cycle;Signal;HPM_P1;HPM_P2
2023/01/12 00:01:23;;;;;;;31.90;9.33;;;7.30;99.90;;;;;;5012137;28;20522;-78
2023/01/12 00:03:50;;;;;;;36.70;8.93;;;7.30;99.90;;;;;;5012962;28;20100;-78
2023/01/12 00:06:18;;;;;;;25.20;6.60;;;7.30;99.90;;;;;;5011873;28;20103;-77
2023/01/12 00:08:45;;;;;;;32.10;7.13;;;7.30;99.90;;;;;;4979360;28;20057;-77
2023/01/12 00:11:10;;;;;;;34.00;8.17;;;7.10;99.90;;;;;;4994576;28;20075;-77
2023/01/12 00:13:36;;;;;;;45.50;12.70;;;7.30;99.90;;;;;;5012656;28;20136;-78
2023/01/12 00:18:48;;;;;;;44.83;17.43;;;7.50;99.90;;;;;;5012265;28;20514;-77
2023/01/12 00:21:14;;;;;;;73.50;65.90;;;7.70;99.90;;;;;;5012113;28;20042;-77
2023/01/12 00:23:41;;;;;;;33.83;11.80;;;7.80;99.90;;;;;;5012225;28;20042;-78
2023/01/12 00:26:07;;;;;;;42.93;22.00;;;7.80;99.90;;;;;;5012092;28;20057;-75
2023/01/12 00:28:37;;;;;;;37.23;13.77;;;7.80;99.90;;;;;;5011744;28;20128;-76
2023/01/12 00:31:08;;;;;;;36.40;11.17;;;7.70;99.90;;;;;;5011133;28;20385;-76
2023/01/12 00:33:35;;;;;;;174.85;159.20;;;7.70;99.90;;;;;;5011905;28;20381;-76
2023/01/12 00:36:06;;;;;;;31.93;14.73;;;7.70;99.90;;;;;;5011568;28;20484;-77
2023/01/12 00:38:35;;;;;;;35.50;27.88;;;7.70;99.90;;;;;;5012011;28;20510;-77
2023/01/12 00:41:08;;;;;;;29.80;21.73;;;7.50;99.90;;;;;;4992921;28;20377;-77
2023/01/12 00:46:27;;;;;;;186.10;171.63;;;7.40;99.90;;;;;;5011412;28;20403;-77
2023/01/12 00:48:53;;;;;;;34.97;21.03;;;7.40;99.90;;;;;;5011763;28;20053;-77
2023/01/12 00:51:18;;;;;;;43.00;9.70;;;7.50;99.90;;;;;;5010859;28;20041;-78
2023/01/12 00:53:44;;;;;;;29.13;17.37;;;7.50;99.90;;;;;;5011740;28;20084;-76
2023/01/12 00:56:10;;;;;;;30.90;7.73;;;7.60;99.90;;;;;;5010648;28;20068;-78
2023/01/12 00:58:35;;;;;;;38.77;21.40;;;7.60;99.90;;;;;;5011872;28;20134;-77
2023/01/12 01:01:08;;;;;;;30.33;9.47;;;7.50;99.90;;;;;;4978168;28;20058;-77
2023/01/12 01:03:34;;;;;;;31.20;8.80;;;7.60;99.90;;;;;;5011075;28;20140;-77
2023/01/12 01:06:05;;;;;;;35.83;10.43;;;7.60;99.90;;;;;;5010980;28;20099;-77
2023/01/12 01:08:31;;;;;;;36.17;12.00;;;7.60;99.90;;;;;;5011761;28;20412;-78
2023/01/12 01:11:05;;;;;;;37.03;14.20;;;7.60;99.90;;;;;;5010704;28;20052;-78
2023/01/12 01:13:32;;;;;;;29.00;11.23;;;7.70;99.90;;;;;;5011492;28;20060;-78
2023/01/12 01:15:59;;;;;;;35.13;12.83;;;7.70;99.90;;;;;;5010625;28;20042;-77
2023/01/12 01:18:26;;;;;;;31.17;8.77;;;7.80;99.90;;;;;;5011248;28;20088;-77
2023/01/12 01:20:51;;;;;;;34.53;16.23;;;7.80;99.90;;;;;;5011080;28;20110;-77
2023/01/12 01:23:17;;;;;;;29.60;9.37;;;7.60;99.90;;;;;;5010778;28;20058;-77
2023/01/12 01:25:43;;;;;;;28.70;10.23;;;7.60;99.90;;;;;;5011134;28;20092;-77
2023/01/12 01:28:08;;;;;;;36.80;30.10;;;7.60;99.90;;;;;;5010249;28;20396;-78
2023/01/12 01:30:34;;;;;;;64.47;58.47;;;7.60;99.90;;;;;;5011186;28;20046;-77
2023/01/12 01:33:00;;;;;;;36.63;28.50;;;7.50;99.90;;;;;;5010584;28;20081;-78
2023/01/12 01:35:25;;;;;;;40.63;29.17;;;7.70;99.90;;;;;;5010691;28;20038;-77
2023/01/12 01:37:51;;;;;;;30.23;10.60;;;7.70;99.90;;;;;;5010393;28;20045;-79
2023/01/12 01:40:17;;;;;;;36.83;12.63;;;7.80;99.90;;;;;;5010492;28;20132;-78
2023/01/12 01:42:42;;;;;;;38.83;10.73;;;7.70;99.90;;;;;;5010615;28;20092;-78
2023/01/12 01:45:11;;;;;;;32.23;9.60;;;7.70;99.90;;;;;;5010785;28;20081;-78
2023/01/12 01:47:45;;;;;;;40.83;16.90;;;7.70;99.90;;;;;;5010827;28;20407;-79
2023/01/12 01:50:30;;;;;;;37.90;11.37;;;7.50;99.90;;;;;;5010811;28;20428;-77
2023/01/12 01:53:08;;;;;;;41.90;9.63;;;7.60;99.90;;;;;;4992882;28;20119;-77
2023/01/12 01:55:38;;;;;;;32.50;9.60;;;7.60;99.90;;;;;;5010320;28;20526;-77
2023/01/12 01:58:09;;;;;;;34.77;14.50;;;7.50;99.90;;;;;;4992740;28;20046;-77
2023/01/12 02:00:41;;;;;;;40.28;9.15;;;7.50;99.90;;;;;;5010365;28;20050;-77
2023/01/12 02:03:08;;;;;;;39.67;14.07;;;7.50;99.90;;;;;;5009277;28;20053;-78
2023/01/12 02:05:36;;;;;;;55.40;49.87;;;7.50;99.90;;;;;;4993290;28;20053;-77
2023/01/12 02:08:10;;;;;;;41.80;17.93;;;7.50;99.90;;;;;;4991910;28;20403;-77
2023/01/12 02:10:37;;;;;;;32.43;9.43;;;7.60;99.90;;;;;;5010420;28;20050;-76
2023/01/12 02:19:06;;;;;;;27.73;8.40;;;7.60;99.90;;;;;;5002041;28;20088;-76
2023/01/12 02:22:01;;;;;;;23.23;7.88;;;7.60;99.90;;;;;;5009640;28;20052;-76
2023/01/12 02:24:59;;;;;;;32.40;7.87;;;7.60;99.90;;;;;;4922327;28;20052;-76
2023/01/12 02:28:03;;;;;;;31.30;9.97;;;7.60;99.90;;;;;;4968202;28;20065;-78
2023/01/12 02:31:03;;;;;;;32.90;10.57;;;7.70;99.90;;;;;;5009644;28;20057;-77
2023/01/12 02:33:40;;;;;;;36.83;9.10;;;7.70;99.90;;;;;;5009798;28;20050;-78
2023/01/12 02:36:28;;;;;;;35.03;11.43;;;7.80;99.90;;;;;;5009690;28;20053;-77
2023/01/12 02:39:00;;;;;;;37.17;13.27;;;7.80;99.90;;;;;;5010339;28;20096;-76
2023/01/12 02:44:32;;;;;;;40.43;20.50;;;7.80;99.90;;;;;;4990839;28;20555;-78
2023/01/12 02:47:00;;;;;;;39.70;17.20;;;7.80;99.90;;;;;;4987016;28;20051;-76
2023/01/12 02:49:30;;;;;;;47.70;13.33;;;7.90;99.90;;;;;;5008871;28;20042;-76
2023/01/12 02:52:07;;;;;;;33.23;10.03;;;7.80;99.90;;;;;;5009399;28;20073;-78
2023/01/12 02:54:35;;;;;;;26.87;8.87;;;7.80;99.90;;;;;;5009758;28;20081;-77
2023/01/12 02:57:04;;;;;;;35.57;15.67;;;7.80;99.90;;;;;;5009059;28;20058;-76
2023/01/12 02:59:36;;;;;;;38.70;14.53;;;7.70;99.90;;;;;;5009468;28;20120;-77
2023/01/12 03:02:17;;;;;;;39.47;11.10;;;7.70;99.90;;;;;;4988821;28;20066;-76
2023/01/12 03:04:43;;;;;;;45.92;12.05;;;7.70;99.90;;;;;;4981287;28;20408;-77
2023/01/12 03:07:40;;;;;;;47.03;26.20;;;7.60;99.90;;;;;;5006633;28;20046;-77
2023/01/12 03:10:18;;;;;;;41.80;12.43;;;7.80;99.90;;;;;;4988952;28;20042;-77
2023/01/12 03:12:45;;;;;;;47.10;23.70;;;7.70;99.90;;;;;;5009810;28;20066;-76
2023/01/12 03:15:13;;;;;;;40.60;11.97;;;7.80;99.90;;;;;;4992993;28;20467;-77
2023/01/12 03:17:45;;;;;;;46.47;22.47;;;7.80;99.90;;;;;;5010020;28;20050;-77
2023/01/12 03:20:23;;;;;;;38.87;14.80;;;7.80;99.90;;;;;;5011062;28;20053;-76
2023/01/12 03:22:54;;;;;;;43.23;15.33;;;7.90;99.90;;;;;;5012403;28;20403;-76
2023/01/12 03:25:22;;;;;;;40.30;10.90;;;8.00;99.90;;;;;;4995539;28;20045;-76
2023/01/12 03:27:52;;;;;;;44.47;19.67;;;8.00;99.90;;;;;;5013180;28;20042;-77
2023/01/12 03:30:28;;;;;;;47.53;22.63;;;8.00;99.90;;;;;;5013875;28;20088;-77
2023/01/12 03:32:54;;;;;;;42.10;18.07;;;8.00;99.90;;;;;;5012445;28;20054;-79
2023/01/12 03:35:26;;;;;;;39.63;12.93;;;8.00;99.90;;;;;;5012904;28;20038;-77
2023/01/12 03:38:17;;;;;;;50.20;28.75;;;8.00;99.90;;;;;;5013123;28;20459;-78
2023/01/12 03:40:48;;;;;;;52.88;32.75;;;8.00;99.90;;;;;;5013223;28;20539;-77
2023/01/12 03:43:25;;;;;;;39.95;10.10;;;8.00;99.90;;;;;;5012411;28;20081;-79
2023/01/12 03:46:01;;;;;;;37.80;11.90;;;8.10;99.90;;;;;;4995079;28;20053;-78
2023/01/12 03:48:50;;;;;;;41.07;21.10;;;8.10;99.90;;;;;;5012878;28;20446;-77
2023/01/12 03:51:23;;;;;;;35.63;12.20;;;8.10;99.90;;;;;;5011528;28;20522;-77
2023/01/12 03:53:51;;;;;;;49.27;41.13;;;8.10;99.90;;;;;;5012906;28;20053;-77
2023/01/12 03:56:19;;;;;;;43.70;24.93;;;8.20;99.90;;;;;;4994106;28;20057;-77
2023/01/12 03:58:46;;;;;;;34.50;12.50;;;8.20;99.90;;;;;;5012587;28;20430;-77
2023/01/12 04:01:12;;;;;;;36.03;27.17;;;8.20;99.90;;;;;;5012640;28;20476;-77
2023/01/12 04:03:38;;;;;;;40.13;24.10;;;8.30;99.90;;;;;;5012358;28;20084;-77
2023/01/12 04:06:04;;;;;;;42.73;22.47;;;8.30;99.90;;;;;;5012370;28;20120;-77
2023/01/12 04:08:30;;;;;;;38.60;14.50;;;8.30;99.90;;;;;;5012455;28;20053;-78
2023/01/12 04:10:56;;;;;;;37.83;10.97;;;8.30;99.90;;;;;;5012562;28;20046;-77
2023/01/12 04:13:22;;;;;;;40.13;15.13;;;8.30;99.90;;;;;;5012410;28;20053;-77
2023/01/12 04:15:47;;;;;;;35.67;16.60;;;8.30;99.90;;;;;;5012465;28;20103;-78
2023/01/12 04:18:13;;;;;;;40.87;22.37;;;8.30;99.90;;;;;;5011639;28;20058;-80
2023/01/12 04:20:39;;;;;;;43.03;17.20;;;8.30;99.90;;;;;;5012257;28;20046;-80
2023/01/12 04:23:08;;;;;;;40.73;13.03;;;8.30;99.90;;;;;;5011260;28;20369;-78
2023/01/12 04:25:34;;;;;;;41.63;20.60;;;8.20;99.90;;;;;;5012348;28;20049;-78
2023/01/12 04:28:03;;;;;;;70.43;63.93;;;8.30;99.90;;;;;;4994729;28;20069;-77
2023/01/12 04:30:31;;;;;;;32.90;14.37;;;8.20;99.90;;;;;;4994463;28;20065;-77
2023/01/12 04:32:58;;;;;;;35.07;23.60;;;8.20;99.90;;;;;;4993958;28;20081;-78
2023/01/12 04:35:24;;;;;;;67.73;62.40;;;8.20;99.90;;;;;;5012173;28;20049;-76
2023/01/12 04:37:51;;;;;;;40.37;36.03;;;8.30;99.90;;;;;;5011642;28;20404;-77
2023/01/12 04:40:17;;;;;;;23.40;20.43;;;8.20;99.90;;;;;;5011920;28;20526;-77
2023/01/12 04:43:02;;;;;;;42.23;39.13;;;8.10;99.90;;;;;;5011144;28;20053;-77
2023/01/12 04:45:30;;;;;;;26.20;17.60;;;8.10;99.90;;;;;;4994301;28;20698;-77
2023/01/12 04:48:10;;;;;;;24.03;11.50;;;8.20;99.90;;;;;;5011233;28;20057;-77
2023/01/12 04:50:37;;;;;;;25.07;16.27;;;8.20;99.90;;;;;;5012254;28;20531;-78
2023/01/12 04:53:04;;;;;;;20.33;12.87;;;8.10;99.90;;;;;;5010787;28;20100;-77
2023/01/12 04:55:30;;;;;;;41.00;37.50;;;8.00;99.90;;;;;;5011596;28;20561;-77
2023/01/12 04:57:56;;;;;;;41.13;37.60;;;8.00;99.90;;;;;;5011127;28;20061;-78
2023/01/12 05:00:22;;;;;;;22.10;14.40;;;8.00;99.90;;;;;;5011659;28;20107;-80
2023/01/12 05:02:48;;;;;;;39.53;36.47;;;8.00;99.90;;;;;;4993868;28;20051;-77
2023/01/12 05:05:14;;;;;;;54.00;50.20;;;8.00;99.90;;;;;;4993532;28;20133;-79
2023/01/12 05:10:21;;;;;;;34.57;31.33;;;7.90;99.90;;;;;;4993926;28;20160;-77
2023/01/12 05:10:29;;;;;;;32.70;29.70;;;7.90;99.90;;;;;;5011100;28;20058;-78
2023/01/12 05:12:55;;;;;;;99.23;92.50;;;8.00;99.90;;;;;;5003206;28;20049;-78
2023/01/12 05:15:21;;;;;;;24.20;21.93;;;7.90;99.90;;;;;;5008817;28;20057;-77
2023/01/12 05:17:47;;;;;;;133.87;124.37;;;7.90;99.90;;;;;;5009169;28;20049;-78
2023/01/12 05:20:13;;;;;;;75.97;70.83;;;7.90;99.90;;;;;;5011230;28;20108;-77
2023/01/12 05:22:38;;;;;;;42.37;39.67;;;8.00;99.90;;;;;;5009740;28;20096;-77
2023/01/12 05:25:04;;;;;;;58.23;54.37;;;7.90;99.90;;;;;;5001922;28;20128;-78
2023/01/12 05:27:30;;;;;;;32.90;30.40;;;7.90;99.90;;;;;;5011041;28;20100;-76
2023/01/12 05:29:58;;;;;;;330.50;306.00;;;7.90;99.90;;;;;;5010188;28;20050;-76
2023/01/12 05:32:24;;;;;;;105.27;98.13;;;7.90;99.90;;;;;;5010774;28;20184;-77
2023/01/12 05:34:53;;;;;;;101.27;95.33;;;8.00;99.90;;;;;;4992754;28;20061;-77
2023/01/12 05:37:18;;;;;;;42.53;39.57;;;7.80;99.90;;;;;;5010789;28;20049;-77
2023/01/12 05:39:44;;;;;;;56.50;53.10;;;7.80;99.90;;;;;;4993576;28;20053;-76
2023/01/12 05:44:54;;;;;;;147.47;138.97;;;7.80;99.90;;;;;;5010746;28;20138;-76
2023/01/12 05:47:19;;;;;;;64.00;60.27;;;7.80;99.90;;;;;;5010623;28;20506;-77
2023/01/12 05:49:45;;;;;;;48.70;45.37;;;7.90;99.90;;;;;;5010897;28;20485;-76
2023/01/12 05:52:11;;;;;;;29.97;27.80;;;7.80;99.90;;;;;;5001762;28;20404;-76
2023/01/12 05:54:36;;;;;;;15.47;14.33;;;7.80;99.90;;;;;;4992198;28;20108;-76
2023/01/12 05:57:09;;;;;;;37.90;35.77;;;7.80;99.90;;;;;;5122948;27;1258399;-77
2023/01/12 05:59:35;;;;;;;60.33;56.57;;;7.90;99.90;;;;;;5166681;27;20050;-77
2023/01/12 06:02:00;;;;;;;39.33;36.63;;;7.90;99.90;;;;;;5148731;27;20133;-75
2023/01/12 06:04:26;;;;;;;18.13;16.37;;;7.90;99.90;;;;;;5169278;27;20430;-75
2023/01/12 06:06:52;;;;;;;251.27;233.73;;;7.90;99.90;;;;;;5168308;27;20121;-75
2023/01/12 06:09:17;;;;;;;39.07;36.63;;;7.80;99.90;;;;;;5168310;27;20046;-78
2023/01/12 06:14:27;;;;;;;23.23;21.60;;;7.90;99.90;;;;;;5148655;27;20054;-76
2023/01/12 06:16:53;;;;;;;12.53;11.50;;;7.90;99.90;;;;;;5144680;27;20031;-76
2023/01/12 06:19:18;;;;;;;33.57;31.50;;;8.00;99.90;;;;;;5130608;27;20047;-77
2023/01/12 06:21:44;;;;;;;17.03;15.73;;;8.00;99.90;;;;;;5127282;28;20040;-77
2023/01/12 06:24:09;;;;;;;23.93;22.43;;;8.00;99.90;;;;;;5121326;27;20402;-76
2023/01/12 06:26:35;;;;;;;19.87;18.27;;;8.00;99.90;;;;;;5126638;27;20484;-75
2023/01/12 06:29:04;;;;;;;31.33;28.93;;;8.10;99.90;;;;;;5126512;28;20047;-76
2023/01/12 06:31:29;;;;;;;52.50;49.73;;;8.10;99.90;;;;;;5127203;28;20112;-76
2023/01/12 06:33:55;;;;;;;22.27;20.97;;;8.20;99.90;;;;;;5127451;28;20377;-76
2023/01/12 06:36:21;;;;;;;38.40;36.27;;;8.30;99.90;;;;;;5126637;28;20101;-76
2023/01/12 06:38:46;;;;;;;18.30;17.10;;;8.40;99.90;;;;;;5108873;28;20054;-75
2023/01/12 06:43:57;;;;;;;22.00;20.77;;;8.40;99.90;;;;;;5148018;27;20054;-75
2023/01/12 06:46:25;;;;;;;29.20;27.60;;;8.50;99.90;;;;;;5145267;27;20441;-75
2023/01/12 06:48:53;;;;;;;49.80;47.10;;;8.50;99.90;;;;;;5126876;28;20052;-78
2023/01/12 06:51:19;;;;;;;77.50;73.17;;;8.50;99.90;;;;;;5127018;28;20458;-75
2023/01/12 06:53:44;;;;;;;17.90;16.73;;;8.70;99.90;;;;;;5135507;27;20035;-76
2023/01/12 06:56:10;;;;;;;74.10;69.70;;;8.60;99.90;;;;;;5123051;28;20453;-76
2023/01/12 06:58:36;;;;;;;23.17;21.20;;;8.70;99.90;;;;;;5106628;28;20163;-77
2023/01/12 07:01:03;;;;;;;44.73;41.70;;;8.80;99.90;;;;;;5106149;28;20093;-76
2023/01/12 07:03:28;;;;;;;41.57;38.57;;;8.80;99.90;;;;;;5106043;28;20052;-77
2023/01/12 07:05:58;;;;;;;63.63;58.43;;;8.90;99.90;;;;;;5105582;28;20396;-76
2023/01/12 07:08:23;;;;;;;25.10;12.47;;;8.90;99.90;;;;;;5092043;28;20379;-78
2023/01/12 07:10:49;;;;;;;50.27;45.37;;;9.10;99.90;;;;;;5092103;28;20044;-75
2023/01/12 07:13:15;;;;;;;83.97;77.27;;;9.20;99.90;;;;;;5092503;28;20440;-76
2023/01/12 07:15:40;;;;;;;51.90;46.57;;;9.30;99.90;;;;;;5092531;28;20055;-76
2023/01/12 07:18:06;;;;;;;39.30;22.70;;;9.30;99.90;;;;;;5101694;28;20044;-77
2023/01/12 07:20:32;;;;;;;53.30;47.83;;;9.50;99.90;;;;;;5091842;28;20047;-75
2023/01/12 07:22:58;;;;;;;86.07;78.70;;;9.50;99.90;;;;;;5091831;28;20060;-75
2023/01/12 07:25:24;;;;;;;37.27;24.73;;;9.50;99.90;;;;;;5101693;28;20068;-76
2023/01/12 07:27:55;;;;;;;32.90;11.47;;;9.60;99.90;;;;;;5091877;28;20450;-76
2023/01/12 07:30:21;;;;;;;45.85;33.85;;;9.50;99.90;;;;;;5092041;28;20282;-75
2023/01/12 07:32:48;;;;;;;109.70;100.20;;;9.70;99.90;;;;;;5093192;28;20081;-76
2023/01/12 07:35:14;;;;;;;46.70;41.77;;;9.80;99.90;;;;;;5111185;28;20062;-78
2023/01/12 07:37:50;;;;;;;35.40;25.50;;;9.70;99.90;;;;;;5111369;28;20516;-76
2023/01/12 07:40:16;;;;;;;65.73;58.80;;;9.90;99.90;;;;;;5088030;28;20512;-79
2023/01/12 07:42:42;;;;;;;174.27;157.93;;;10.00;99.90;;;;;;5083380;28;20044;-77
2023/01/12 07:45:08;;;;;;;64.60;58.20;;;9.90;99.90;;;;;;5065753;28;20051;-74
2023/01/12 07:47:34;;;;;;;59.10;52.03;;;10.00;99.90;;;;;;5100427;28;20052;-76
2023/01/12 07:49:59;;;;;;;51.43;46.10;;;10.00;99.90;;;;;;5100405;28;20269;-76
2023/01/12 07:52:25;;;;;;;36.30;20.67;;;10.00;99.90;;;;;;5099329;28;20038;-76
2023/01/12 07:54:51;;;;;;;45.23;40.30;;;10.00;99.90;;;;;;5101863;28;20043;-76
2023/01/12 07:57:17;;;;;;;55.97;50.13;;;10.00;99.90;;;;;;5115229;27;20086;-76
2023/01/12 07:59:43;;;;;;;61.30;55.47;;;10.00;99.90;;;;;;5121579;27;20049;-78
2023/01/12 08:02:15;;;;;;;187.20;170.63;;;10.00;99.90;;;;;;5120812;27;20039;-76
2023/01/12 08:04:42;;;;;;;227.70;207.50;;;10.10;99.90;;;;;;5100648;27;20051;-77
2023/01/12 08:07:08;;;;;;;40.77;31.27;;;10.20;99.90;;;;;;5121374;27;20120;-75
2023/01/12 08:09:34;;;;;;;120.87;110.50;;;10.20;99.90;;;;;;5128831;27;20482;-75
2023/01/12 08:12:00;;;;;;;30.97;15.70;;;10.10;99.90;;;;;;5103445;27;20043;-76
2023/01/12 08:14:32;;;;;;;45.47;33.33;;;10.20;99.90;;;;;;5121184;27;20378;-75
2023/01/12 08:17:00;;;;;;;75.23;68.73;;;10.10;99.90;;;;;;5117486;27;20082;-75
2023/01/12 08:19:35;;;;;;;47.03;41.93;;;10.10;99.90;;;;;;5107407;27;20413;-77
2023/01/12 08:22:03;;;;;;;236.33;217.37;;;10.10;99.90;;;;;;5074686;28;20060;-75
2023/01/12 08:24:35;;;;;;;62.70;56.87;;;10.30;99.90;;;;;;5097093;27;20054;-76
2023/01/12 08:27:04;;;;;;;82.23;74.83;;;10.20;99.90;;;;;;5116932;27;20252;-74
2023/01/12 08:29:33;;;;;;;34.43;27.77;;;10.30;99.90;;;;;;5092345;28;20052;-76
2023/01/12 08:32:02;;;;;;;58.37;52.97;;;10.20;99.90;;;;;;5091837;28;20370;-77
2023/01/12 08:34:28;;;;;;;151.43;138.93;;;10.30;99.90;;;;;;5118443;27;20039;-75
2023/01/12 08:36:57;;;;;;;185.67;171.20;;;10.30;99.90;;;;;;5117201;27;20096;-76
2023/01/12 08:39:22;;;;;;;76.73;69.97;;;10.20;99.90;;;;;;5117642;27;20051;-77
2023/01/12 08:41:48;;;;;;;48.10;43.47;;;10.30;99.90;;;;;;5115804;27;20058;-76
2023/01/12 08:44:14;;;;;;;314.00;285.70;;;10.20;99.90;;;;;;5109953;28;20043;-76
2023/01/12 08:46:51;;;;;;;49.17;43.57;;;10.30;99.90;;;;;;5117947;27;20042;-75
2023/01/12 08:49:21;;;;;;;245.23;226.63;;;10.30;99.90;;;;;;5116444;27;20413;-76
2023/01/12 08:51:47;;;;;;;117.20;107.47;;;10.40;99.90;;;;;;5115834;27;20055;-78
2023/01/12 08:54:15;;;;;;;59.87;54.27;;;10.30;99.90;;;;;;5118872;27;20043;-76
2023/01/12 08:56:41;;;;;;;43.40;39.13;;;10.30;99.90;;;;;;5092522;28;20086;-77
2023/01/12 08:59:08;;;;;;;38.97;35.03;;;10.30;99.90;;;;;;5104710;27;20504;-75
2023/01/12 09:01:34;;;;;;;40.13;36.07;;;10.40;99.90;;;;;;5114609;27;20069;-76
2023/01/12 09:04:00;;;;;;;70.10;64.53;;;10.30;99.90;;;;;;5105049;27;20054;-76
2023/01/12 09:06:33;;;;;;;41.37;35.23;;;10.30;99.90;;;;;;5100912;27;20054;-76
2023/01/12 09:09:01;;;;;;;74.83;69.10;;;10.20;99.90;;;;;;5116162;27;20047;-76
2023/01/12 09:11:28;;;;;;;193.23;177.10;;;10.20;99.90;;;;;;5112607;27;20039;-76
2023/01/12 09:13:55;;;;;;;37.57;32.53;;;10.30;99.90;;;;;;5117159;27;20173;-75
2023/01/12 09:16:21;;;;;;;143.00;133.50;;;10.30;99.90;;;;;;5115567;27;20043;-78
2023/01/12 09:18:47;;;;;;;294.80;270.70;;;10.40;99.90;;;;;;5113382;27;20070;-75
2023/01/12 09:21:17;;;;;;;201.00;185.70;;;10.50;99.90;;;;;;5093666;28;20043;-75
2023/01/12 09:23:45;;;;;;;267.93;242.87;;;10.50;99.90;;;;;;5117065;27;20465;-75
2023/01/12 09:26:13;;;;;;;73.00;66.47;;;10.50;99.90;;;;;;5112336;27;20587;-75
2023/01/12 09:28:40;;;;;;;50.27;45.60;;;10.40;99.90;;;;;;5099794;28;20051;-75
2023/01/12 09:31:08;;;;;;;29.83;22.10;;;10.30;99.90;;;;;;5113908;27;20043;-75
2023/01/12 09:33:36;;;;;;;45.27;40.93;;;10.30;99.90;;;;;;5116047;27;20046;-76
2023/01/12 09:36:07;;;;;;;27.93;21.43;;;10.30;99.90;;;;;;5116049;27;20535;-75
2023/01/12 09:38:34;;;;;;;;;;;10.40;99.90;;;;;;5118787;27;20110;-76
2023/01/12 09:41:08;;;;;;;45.00;38.63;;;10.30;99.90;;;;;;5113878;27;20301;-76
2023/01/12 09:49:11;;;;;;;34.67;27.43;;;10.30;99.90;;;;;;5109047;28;20079;-78
2023/01/12 09:51:57;;;;;;;100.53;93.40;;;10.30;99.90;;;;;;5128071;27;20095;-76
2023/01/12 09:54:23;;;;;;;79.27;73.73;;;10.40;99.90;;;;;;5114405;28;20085;-76
2023/01/12 09:57:04;;;;;;;271.97;251.43;;;10.50;99.90;;;;;;5115452;28;20051;-78
2023/01/12 09:59:54;;;;;;;161.20;149.40;;;10.50;99.90;;;;;;5104008;28;20054;-81
2023/01/12 10:02:20;;;;;;;34.40;27.57;;;10.50;99.90;;;;;;5112120;28;20050;-79
2023/01/12 10:04:48;;;;;;;302.03;275.10;;;10.50;99.90;;;;;;5113457;28;20120;-82
2023/01/12 10:07:17;;;;;;;27.50;20.23;;;10.40;99.90;;;;;;5113796;28;20055;-76
2023/01/12 10:09:43;;;;;;;58.27;53.70;;;10.30;99.90;;;;;;5080182;28;20043;-76
2023/01/12 10:12:40;;;;;;;198.27;182.47;;;10.20;99.90;;;;;;5093471;28;20150;-77
2023/01/12 10:15:18;;;;;;;246.93;225.13;;;10.20;99.90;;;;;;5094147;28;20496;-77
2023/01/12 10:17:56;;;;;;;36.13;32.73;;;10.20;99.90;;;;;;5115458;28;20384;-76
2023/01/12 10:20:34;;;;;;;36.30;32.73;;;10.20;99.90;;;;;;5115213;28;20071;-76
2023/01/12 10:23:05;;;;;;;33.00;20.97;;;10.30;99.90;;;;;;5109297;28;20048;-76
2023/01/12 10:25:40;;;;;;;;;;;10.30;99.90;;;;;;5119082;28;20046;-76
2023/01/12 10:28:13;;;;;;;79.50;73.27;;;10.40;99.90;;;;;;5115411;28;19934;-75
2023/01/12 10:30:40;;;;;;;24.97;18.87;;;10.40;99.90;;;;;;5114273;28;20039;-79
2023/01/12 10:33:16;;;;;;;18.90;13.53;;;10.30;99.90;;;;;;5113046;28;20051;-76
2023/01/12 10:36:06;;;;;;;105.70;95.73;;;10.30;99.90;;;;;;5120458;28;20103;-77
2023/01/12 10:38:37;;;;;;;31.17;28.30;;;10.50;99.90;;;;;;5116587;28;20086;-75
2023/01/12 10:41:04;;;;;;;47.63;43.25;;;10.60;99.90;;;;;;5112508;28;20593;-77
2023/01/12 10:43:33;;;;;;;59.20;54.43;;;10.60;99.90;;;;;;5120666;27;20484;-77
2023/01/12 10:46:07;;;;;;;40.73;36.67;;;10.60;99.90;;;;;;5122543;27;20929;-75
2023/01/12 10:48:33;;;;;;;29.50;17.07;;;10.60;99.90;;;;;;5119057;27;20061;-76
2023/01/12 10:51:48;;;;;;;57.80;52.90;;;10.60;99.90;;;;;;5130603;27;20480;-78
2023/01/12 10:54:19;;;;;;;31.70;24.33;;;10.60;99.90;;;;;;5118570;27;20520;-75
2023/01/12 10:57:01;;;;;;;57.77;52.43;;;10.60;99.90;;;;;;5125848;27;20043;-76
2023/01/12 10:59:37;;;;;;;147.53;136.67;;;10.60;99.90;;;;;;5096481;27;20055;-77
2023/01/12 11:02:07;;;;;;;43.80;39.10;;;10.50;99.90;;;;;;5131743;27;20402;-75
2023/01/12 11:04:43;;;;;;;44.87;40.37;;;10.50;99.90;;;;;;5126207;27;20488;-76
2023/01/12 11:07:11;;;;;;;30.93;22.87;;;10.40;99.90;;;;;;5116106;27;20505;-76
2023/01/12 11:09:38;;;;;;;37.93;29.60;;;10.40;99.90;;;;;;5112659;27;20389;-78
2023/01/12 11:12:18;;;;;;;37.10;15.90;;;10.50;99.90;;;;;;5099400;28;20043;-75
2023/01/12 11:15:16;;;;;;;36.53;28.50;;;10.50;99.90;;;;;;5111725;28;20540;-82
2023/01/12 11:18:00;;;;;;;26.20;14.33;;;10.60;99.90;;;;;;5110752;27;20451;-76
2023/01/12 11:20:46;;;;;;;29.33;20.93;;;10.60;99.90;;;;;;5126661;27;20064;-76
2023/01/12 11:23:24;;;;;;;30.13;23.07;;;10.50;99.90;;;;;;5131673;27;20066;-83
2023/01/12 11:25:52;;;;;;;119.67;110.07;;;10.50;99.90;;;;;;5117623;27;20127;-76
2023/01/12 11:28:28;;;;;;;56.53;52.47;;;10.60;99.90;;;;;;5092225;28;20456;-75
2023/01/12 11:31:15;;;;;;;83.80;77.43;;;10.80;99.90;;;;;;5111156;28;20093;-75
2023/01/12 11:33:48;;;;;;;34.60;30.43;;;10.80;99.90;;;;;;5111774;28;20062;-75
2023/01/12 11:36:19;;;;;;;95.07;88.57;;;10.80;99.90;;;;;;5110516;28;20606;-79
2023/01/12 11:38:49;;;;;;;36.85;31.33;;;10.90;99.90;;;;;;5119765;27;20043;-80
2023/01/12 11:41:40;;;;;;;33.53;29.20;;;10.90;99.90;;;;;;5124861;27;20049;-76
2023/01/12 11:44:22;;;;;;;30.83;27.57;;;11.00;99.90;;;;;;5111092;28;20124;-79
2023/01/12 11:47:03;;;;;;;153.57;142.73;;;11.00;99.90;;;;;;5103274;27;20049;-81
2023/01/12 11:49:54;;;;;;;36.15;31.08;;;11.10;99.90;;;;;;5117767;27;20069;-76
2023/01/12 11:52:20;;;;;;;133.70;122.63;;;11.30;99.90;;;;;;5118921;27;20074;-76
2023/01/12 11:54:46;;;;;;;327.67;297.03;;;11.30;99.90;;;;;;5122694;27;20446;-81
2023/01/12 11:57:27;;;;;;;148.33;138.50;;;11.30;99.90;;;;;;5115880;27;20400;-76
2023/01/12 12:00:25;;;;;;;164.07;150.18;;;11.20;99.90;;;;;;5113550;27;20453;-75
2023/01/12 12:03:28;;;;;;;168.50;153.43;;;11.30;99.90;;;;;;5114939;27;20099;-76
2023/01/12 12:06:27;;;;;;;39.53;36.20;;;11.30;99.90;;;;;;5091497;27;20051;-79
2023/01/12 12:09:23;;;;;;;233.77;218.53;;;11.40;99.90;;;;;;5098098;27;20580;-74
2023/01/12 12:12:09;;;;;;;141.77;131.50;;;11.40;99.90;;;;;;5113455;27;20058;-77
2023/01/12 12:14:43;;;;;;;32.47;29.30;;;11.30;99.90;;;;;;5084870;27;20079;-76
2023/01/12 12:17:22;;;;;;;113.53;104.73;;;11.30;99.90;;;;;;5114490;27;20126;-75
2023/01/12 12:19:54;;;;;;;35.27;31.53;;;11.30;99.90;;;;;;5100256;27;20467;-76
2023/01/12 12:22:38;;;;;;;194.60;177.97;;;11.20;99.90;;;;;;5112609;27;20113;-75
2023/01/12 12:25:37;;;;;;;29.37;26.47;;;11.20;99.90;;;;;;5120939;27;20047;-78
2023/01/12 12:28:17;;;;;;;25.77;18.53;;;11.20;99.90;;;;;;5109917;28;20043;-75
2023/01/12 12:30:48;;;;;;;187.30;174.33;;;11.20;99.90;;;;;;5110438;28;20681;-77
2023/01/12 12:33:23;;;;;;;48.45;44.33;;;11.20;99.90;;;;;;5122748;27;20091;-76
2023/01/12 12:36:09;;;;;;;60.17;55.50;;;11.20;99.90;;;;;;5129317;27;20653;-76
2023/01/12 12:38:46;;;;;;;44.80;40.90;;;11.20;99.90;;;;;;5131252;27;20122;-75
2023/01/12 12:47:30;;;;;;;23.63;18.13;;;10.80;99.90;;;;;;5120021;27;19928;-76
2023/01/12 12:49:59;;;;;;;32.83;27.60;;;10.80;99.90;;;;;;5108737;28;20063;-79
2023/01/12 12:52:29;;;;;;;47.90;43.37;;;10.70;99.90;;;;;;5109982;28;20071;-76
2023/01/12 12:54:57;;;;;;;46.30;41.72;;;10.70;99.90;;;;;;5096390;28;20129;-75
2023/01/12 12:57:22;;;;;;;39.63;25.37;;;10.70;99.90;;;;;;5102620;27;20070;-76
2023/01/12 12:59:52;;;;;;;42.67;38.10;;;10.70;99.90;;;;;;5112244;27;20054;-82
2023/01/12 13:02:37;;;;;;;33.20;28.97;;;10.80;99.90;;;;;;5109105;28;20048;-75
2023/01/12 13:05:05;;;;;;;41.70;35.10;;;10.80;99.90;;;;;;5108385;28;20089;-77
2023/01/12 13:07:36;;;;;;;41.57;37.23;;;10.80;99.90;;;;;;5110124;28;20047;-76
2023/01/12 13:10:18;;;;;;;33.20;27.83;;;10.80;99.90;;;;;;5111461;27;20058;-75
2023/01/12 13:12:52;;;;;;;36.67;32.83;;;10.80;99.90;;;;;;5109855;27;20399;-76
2023/01/12 13:15:20;;;;;;;53.83;49.53;;;10.90;99.90;;;;;;5109269;28;20450;-76
2023/01/12 13:17:47;;;;;;;56.27;50.97;;;10.80;99.90;;;;;;5111913;27;20043;-81
2023/01/12 13:20:13;;;;;;;33.03;29.47;;;10.80;99.90;;;;;;5130367;27;20091;-75
2023/01/12 13:22:45;;;;;;;58.37;53.20;;;10.80;99.90;;;;;;5125538;27;20043;-80
2023/01/12 13:25:13;;;;;;;45.30;40.90;;;10.80;99.90;;;;;;5118704;27;20078;-76